createdAt,value
2023-05-09T00:00:10.579Z,857.00
2023-05-09T00:01:10.850Z,855.00
2023-05-09T00:02:10.716Z,856.00
2023-05-09T00:03:10.740Z,852.00
2023-05-09T00:04:10.787Z,855.00
2023-05-09T00:05:10.843Z,858.00
2023-05-09T00:06:10.828Z,861.00
2023-05-09T00:07:10.888Z,859.00
2023-05-09T00:08:10.936Z,859.00
2023-05-09T00:09:11.066Z,858.00
2023-05-09T00:10:11.015Z,858.00
2023-05-09T00:11:11.076Z,858.00
2023-05-09T00:12:11.097Z,855.00
2023-05-09T00:13:11.193Z,854.00
2023-05-09T00:14:11.176Z,854.00
2023-05-09T00:15:11.308Z,852.00
2023-05-09T00:16:11.288Z,853.00
2023-05-09T00:17:11.345Z,852.00
2023-05-09T00:18:11.378Z,850.00
2023-05-09T00:19:11.421Z,846.00
2023-05-09T00:20:11.482Z,843.00
2023-05-09T00:21:11.488Z,843.00
2023-05-09T00:22:11.552Z,840.00
2023-05-09T00:23:11.561Z,840.00
2023-05-09T00:24:11.626Z,842.00
2023-05-09T00:25:12.028Z,840.00
2023-05-09T00:26:11.700Z,842.00
2023-05-09T00:27:11.835Z,843.00
2023-05-09T00:28:11.774Z,843.00
2023-05-09T00:29:12.330Z,845.00
2023-05-09T00:30:11.927Z,848.00
2023-05-09T00:31:11.914Z,846.00
2023-05-09T00:32:12.140Z,846.00
2023-05-09T00:33:12.018Z,846.00
2023-05-09T00:34:12.067Z,849.00
2023-05-09T00:35:12.210Z,849.00
2023-05-09T00:36:12.137Z,846.00
2023-05-09T00:37:12.364Z,845.00
2023-05-09T00:38:12.261Z,846.00
2023-05-09T00:39:12.296Z,847.00
2023-05-09T00:40:12.360Z,843.00
2023-05-09T00:41:12.500Z,844.00
2023-05-09T00:42:12.870Z,840.00
2023-05-09T00:43:12.460Z,838.00
2023-05-09T00:44:12.527Z,836.00
2023-05-09T00:45:12.868Z,835.00
2023-05-09T00:46:12.670Z,835.00
2023-05-09T00:47:12.668Z,837.00
2023-05-09T00:48:12.700Z,840.00
2023-05-09T00:49:12.738Z,836.00
2023-05-09T00:50:12.750Z,835.00
2023-05-09T00:51:12.836Z,836.00
2023-05-09T00:52:13.351Z,835.00
2023-05-09T00:53:12.915Z,837.00
2023-05-09T00:54:12.965Z,835.00
2023-05-09T00:55:13.228Z,836.00
2023-05-09T00:56:13.034Z,836.00
2023-05-09T00:57:13.130Z,832.00
2023-05-09T00:58:13.102Z,831.00
2023-05-09T00:59:13.144Z,828.00
2023-05-09T01:00:13.568Z,829.00
2023-05-09T01:01:13.301Z,830.00
2023-05-09T01:02:13.375Z,830.00
2023-05-09T01:03:13.490Z,833.00
2023-05-09T01:04:13.373Z,834.00
2023-05-09T01:05:13.669Z,833.00
2023-05-09T01:06:13.482Z,832.00
2023-05-09T01:07:13.546Z,830.00
2023-05-09T01:08:13.574Z,827.00
2023-05-09T01:09:13.597Z,825.00
2023-05-09T01:10:13.679Z,828.00
2023-05-09T01:11:13.750Z,827.00
2023-05-09T01:12:13.750Z,832.00
2023-05-09T01:13:13.948Z,825.00
2023-05-09T01:14:13.851Z,825.00
2023-05-09T01:15:14.158Z,822.00
2023-05-09T01:16:14.000Z,825.00
2023-05-09T01:17:14.374Z,826.00
2023-05-09T01:18:14.037Z,822.00
2023-05-09T01:19:14.090Z,820.00
2023-05-09T01:20:14.144Z,825.00
2023-05-09T01:21:14.171Z,824.00
2023-05-09T01:22:14.297Z,826.00
2023-05-09T01:23:14.299Z,825.00
2023-05-09T01:24:14.339Z,828.00
2023-05-09T01:25:14.551Z,828.00
2023-05-09T01:26:14.404Z,830.00
2023-05-09T01:27:14.432Z,831.00
2023-05-09T01:28:14.494Z,833.00
2023-05-09T01:29:14.646Z,834.00
2023-05-09T01:30:14.606Z,835.00
2023-05-09T01:31:14.648Z,833.00
2023-05-09T01:32:14.679Z,832.00
2023-05-09T01:33:14.710Z,827.00
2023-05-09T01:34:14.798Z,828.00
2023-05-09T01:35:15.061Z,828.00
2023-05-09T01:36:14.863Z,826.00
2023-05-09T01:37:14.901Z,828.00
2023-05-09T01:38:14.960Z,829.00
2023-05-09T01:39:14.986Z,829.00
2023-05-09T01:40:15.015Z,827.00
2023-05-09T01:41:15.143Z,828.00
2023-05-09T01:42:15.134Z,826.00
2023-05-09T01:43:15.181Z,824.00
2023-05-09T01:44:15.259Z,821.00
2023-05-09T01:45:15.817Z,820.00
2023-05-09T01:46:15.355Z,819.00
2023-05-09T01:47:15.368Z,820.00
2023-05-09T01:48:15.427Z,816.00
2023-05-09T01:49:15.448Z,815.00
2023-05-09T01:50:15.512Z,820.00
2023-05-09T01:51:15.571Z,822.00
2023-05-09T01:52:15.625Z,818.00
2023-05-09T01:53:15.676Z,814.00
2023-05-09T01:54:15.736Z,815.00
2023-05-09T01:55:16.001Z,819.00
2023-05-09T01:56:15.783Z,819.00
2023-05-09T01:57:15.853Z,819.00
2023-05-09T01:58:15.917Z,817.00
2023-05-09T01:59:15.967Z,819.00
2023-05-09T02:00:15.985Z,819.00
2023-05-09T02:01:16.198Z,817.00
2023-05-09T02:02:16.400Z,817.00
2023-05-09T02:03:16.162Z,812.00
2023-05-09T02:04:16.164Z,811.00
2023-05-09T02:05:16.519Z,812.00
2023-05-09T02:06:16.276Z,815.00
2023-05-09T02:07:16.331Z,817.00
2023-05-09T02:08:16.370Z,816.00
2023-05-09T02:09:16.450Z,817.00
2023-05-09T02:10:16.476Z,817.00
2023-05-09T02:11:16.535Z,818.00
2023-05-09T02:12:16.600Z,817.00
2023-05-09T02:13:16.706Z,819.00
2023-05-09T02:14:16.695Z,818.00
2023-05-09T02:15:16.811Z,819.00
2023-05-09T02:16:16.830Z,817.00
2023-05-09T02:17:16.885Z,810.00
2023-05-09T02:18:16.875Z,813.00
2023-05-09T02:19:16.933Z,814.00
2023-05-09T02:20:16.977Z,812.00
2023-05-09T02:21:17.084Z,812.00
2023-05-09T02:22:17.082Z,809.00
2023-05-09T02:23:17.121Z,810.00
2023-05-09T02:24:17.176Z,815.00
2023-05-09T02:25:17.289Z,817.00
2023-05-09T02:26:17.293Z,814.00
2023-05-09T02:27:17.307Z,809.00
2023-05-09T02:28:17.350Z,813.00
2023-05-09T02:29:17.336Z,816.00
2023-05-09T02:30:17.376Z,818.00
2023-05-09T02:31:17.421Z,814.00
2023-05-09T02:32:17.883Z,815.00
2023-05-09T02:33:17.574Z,814.00
2023-05-09T02:34:17.553Z,816.00
2023-05-09T02:35:17.562Z,816.00
2023-05-09T02:36:17.611Z,816.00
2023-05-09T02:37:17.876Z,815.00
2023-05-09T02:38:17.695Z,813.00
2023-05-09T02:39:17.741Z,812.00
2023-05-09T02:40:17.747Z,809.00
2023-05-09T02:41:17.763Z,809.00
2023-05-09T02:42:17.806Z,808.00
2023-05-09T02:43:17.871Z,809.00
2023-05-09T02:44:17.893Z,808.00
2023-05-09T02:45:17.902Z,806.00
2023-05-09T02:46:17.977Z,806.00
2023-05-09T02:47:17.976Z,805.00
2023-05-09T02:48:18.022Z,804.00
2023-05-09T02:49:31.419Z,805.00
2023-05-09T02:50:19.117Z,805.00
2023-05-09T02:51:18.084Z,806.00
2023-05-09T02:52:18.093Z,806.00
2023-05-09T02:53:18.065Z,805.00
2023-05-09T02:54:18.053Z,804.00
2023-05-09T02:55:18.070Z,805.00
2023-05-09T02:56:18.041Z,806.00
2023-05-09T02:57:18.403Z,806.00
2023-05-09T02:58:18.075Z,805.00
2023-05-09T02:59:18.042Z,808.00
2023-05-09T03:00:18.052Z,812.00
2023-05-09T03:01:18.115Z,812.00
2023-05-09T03:02:18.406Z,811.00
2023-05-09T03:03:18.398Z,812.00
2023-05-09T03:04:18.201Z,810.00
2023-05-09T03:05:18.349Z,810.00
2023-05-09T03:06:18.319Z,813.00
2023-05-09T03:07:18.413Z,815.00
2023-05-09T03:08:18.419Z,813.00
2023-05-09T03:09:18.471Z,811.00
2023-05-09T03:10:18.598Z,808.00
2023-05-09T03:11:18.617Z,809.00
2023-05-09T03:12:18.668Z,808.00
2023-05-09T03:13:18.750Z,806.00
2023-05-09T03:14:18.756Z,805.00
2023-05-09T03:15:18.812Z,806.00
2023-05-09T03:16:18.918Z,808.00
2023-05-09T03:17:18.897Z,809.00
2023-05-09T03:18:18.928Z,805.00
2023-05-09T03:19:18.992Z,807.00
2023-05-09T03:20:19.052Z,808.00
2023-05-09T03:21:19.199Z,807.00
2023-05-09T03:22:19.151Z,809.00
2023-05-09T03:23:19.195Z,808.00
2023-05-09T03:24:19.257Z,808.00
2023-05-09T03:25:19.350Z,809.00
2023-05-09T03:26:19.412Z,810.00
2023-05-09T03:27:19.927Z,812.00
2023-05-09T03:28:20.435Z,808.00
2023-05-09T03:29:19.516Z,805.00
2023-05-09T03:30:19.574Z,802.00
2023-05-09T03:31:19.656Z,801.00
2023-05-09T03:32:19.707Z,803.00
2023-05-09T03:33:19.736Z,805.00
2023-05-09T03:34:19.771Z,806.00
2023-05-09T03:35:19.820Z,807.00
2023-05-09T03:36:19.883Z,810.00
2023-05-09T03:37:19.997Z,808.00
2023-05-09T03:38:19.989Z,806.00
2023-05-09T03:39:20.050Z,807.00
2023-05-09T03:40:20.089Z,804.00
2023-05-09T03:41:20.135Z,802.00
2023-05-09T03:42:20.188Z,801.00
2023-05-09T03:43:20.230Z,802.00
2023-05-09T03:44:20.296Z,803.00
2023-05-09T03:45:20.337Z,802.00
2023-05-09T03:46:20.394Z,803.00
2023-05-09T03:47:20.419Z,805.00
2023-05-09T03:48:20.483Z,805.00
2023-05-09T03:49:20.530Z,802.00
2023-05-09T03:50:20.588Z,798.00
2023-05-09T03:51:20.661Z,795.00
2023-05-09T03:52:20.937Z,794.00
2023-05-09T03:53:20.813Z,798.00
2023-05-09T03:54:20.780Z,797.00
2023-05-09T03:55:20.833Z,797.00
2023-05-09T03:56:20.910Z,799.00
2023-05-09T03:57:20.954Z,799.00
2023-05-09T03:58:20.996Z,797.00
2023-05-09T03:59:21.067Z,797.00
2023-05-09T04:00:21.095Z,796.00
2023-05-09T04:01:21.142Z,799.00
2023-05-09T04:02:21.255Z,798.00
2023-05-09T04:03:21.340Z,799.00
2023-05-09T04:04:21.297Z,799.00
2023-05-09T04:05:21.392Z,802.00
2023-05-09T04:06:21.420Z,802.00
2023-05-09T04:07:21.453Z,794.00
2023-05-09T04:08:21.488Z,795.00
2023-05-09T04:09:21.668Z,795.00
2023-05-09T04:10:21.605Z,796.00
2023-05-09T04:11:21.712Z,798.00
2023-05-09T04:12:21.731Z,796.00
2023-05-09T04:13:21.829Z,796.00
2023-05-09T04:14:21.803Z,795.00
2023-05-09T04:15:21.889Z,798.00
2023-05-09T04:16:21.941Z,796.00
2023-05-09T04:17:22.431Z,795.00
2023-05-09T04:18:22.071Z,794.00
2023-05-09T04:19:22.110Z,794.00
2023-05-09T04:20:22.153Z,794.00
2023-05-09T04:21:22.204Z,794.00
2023-05-09T04:22:22.269Z,793.00
2023-05-09T04:23:22.312Z,792.00
2023-05-09T04:24:22.363Z,792.00
2023-05-09T04:25:22.500Z,791.00
2023-05-09T04:26:22.477Z,790.00
2023-05-09T04:27:22.940Z,790.00
2023-05-09T04:28:22.561Z,790.00
2023-05-09T04:29:22.595Z,789.00
2023-05-09T04:30:22.684Z,787.00
2023-05-09T04:31:22.760Z,788.00
2023-05-09T04:32:22.750Z,787.00
2023-05-09T04:33:22.814Z,788.00
2023-05-09T04:34:22.887Z,789.00
2023-05-09T04:35:23.097Z,791.00
2023-05-09T04:36:22.979Z,789.00
2023-05-09T04:37:23.437Z,789.00
2023-05-09T04:38:23.073Z,790.00
2023-05-09T04:39:23.149Z,793.00
2023-05-09T04:40:24.333Z,795.00
2023-05-09T04:41:23.323Z,796.00
2023-05-09T04:42:23.426Z,795.00
2023-05-09T04:43:23.335Z,794.00
2023-05-09T04:44:23.404Z,791.00
2023-05-09T04:45:23.429Z,790.00
2023-05-09T04:46:25.626Z,792.00
2023-05-09T04:47:23.991Z,795.00
2023-05-09T04:48:23.599Z,793.00
2023-05-09T04:49:23.670Z,791.00
2023-05-09T04:50:23.697Z,790.00
2023-05-09T04:51:23.756Z,793.00
2023-05-09T04:52:23.820Z,797.00
2023-05-09T04:53:23.871Z,798.00
2023-05-09T04:54:23.910Z,797.00
2023-05-09T04:55:23.942Z,795.00
2023-05-09T04:56:24.017Z,794.00
2023-05-09T04:57:24.173Z,792.00
2023-05-09T04:58:24.153Z,790.00
2023-05-09T04:59:24.158Z,789.00
2023-05-09T05:00:24.257Z,790.00
2023-05-09T05:01:24.302Z,787.00
2023-05-09T05:02:24.482Z,785.00
2023-05-09T05:03:24.388Z,786.00
2023-05-09T05:04:24.549Z,786.00
2023-05-09T05:05:25.391Z,787.00
2023-05-09T05:06:24.558Z,787.00
2023-05-09T05:07:24.645Z,786.00
2023-05-09T05:08:24.695Z,787.00
2023-05-09T05:09:24.733Z,786.00
2023-05-09T05:10:24.768Z,785.00
2023-05-09T05:11:24.816Z,780.00
2023-05-09T05:12:24.850Z,779.00
2023-05-09T05:13:25.117Z,779.00
2023-05-09T05:14:24.961Z,779.00
2023-05-09T05:15:25.014Z,780.00
2023-05-09T05:16:25.091Z,777.00
2023-05-09T05:17:25.122Z,775.00
2023-05-09T05:18:25.185Z,775.00
2023-05-09T05:19:25.232Z,776.00
2023-05-09T05:20:25.284Z,777.00
2023-05-09T05:21:25.321Z,777.00
2023-05-09T05:22:25.396Z,777.00
2023-05-09T05:23:25.435Z,778.00
2023-05-09T05:24:25.502Z,778.00
2023-05-09T05:25:25.564Z,780.00
2023-05-09T05:26:25.588Z,777.00
2023-05-09T05:27:25.636Z,776.00
2023-05-09T05:28:25.681Z,778.00
2023-05-09T05:29:25.837Z,779.00
2023-05-09T05:30:25.883Z,778.00
2023-05-09T05:31:25.928Z,776.00
2023-05-09T05:32:25.920Z,776.00
2023-05-09T05:33:25.992Z,778.00
2023-05-09T05:34:26.003Z,780.00
2023-05-09T05:35:26.073Z,780.00
2023-05-09T05:36:26.128Z,781.00
2023-05-09T05:37:26.484Z,782.00
2023-05-09T05:38:26.220Z,785.00
2023-05-09T05:39:26.272Z,790.00
2023-05-09T05:40:26.299Z,792.00
2023-05-09T05:41:26.376Z,794.00
2023-05-09T05:42:26.456Z,792.00
2023-05-09T05:43:26.508Z,792.00
2023-05-09T05:44:26.520Z,790.00
2023-05-09T05:45:26.661Z,791.00
2023-05-09T05:46:26.685Z,791.00
2023-05-09T05:47:26.701Z,793.00
2023-05-09T05:48:26.745Z,793.00
2023-05-09T05:49:26.782Z,794.00
2023-05-09T05:50:26.828Z,797.00
2023-05-09T05:51:26.896Z,800.00
2023-05-09T05:52:26.933Z,802.00
2023-05-09T05:53:26.974Z,804.00
2023-05-09T05:54:27.062Z,807.00
2023-05-09T05:55:27.125Z,814.00
2023-05-09T05:56:27.155Z,814.00
2023-05-09T05:57:27.202Z,817.00
2023-05-09T05:58:27.246Z,817.00
2023-05-09T05:59:27.307Z,817.00
2023-05-09T06:00:27.386Z,820.00
2023-05-09T06:01:27.521Z,819.00
2023-05-09T06:02:27.518Z,818.00
2023-05-09T06:03:28.053Z,818.00
2023-05-09T06:04:27.590Z,819.00
2023-05-09T06:05:27.650Z,822.00
2023-05-09T06:06:27.674Z,819.00
2023-05-09T06:07:27.711Z,817.00
2023-05-09T06:08:28.028Z,824.00
2023-05-09T06:09:27.809Z,840.00
2023-05-09T06:10:27.837Z,920.00
2023-05-09T06:11:27.879Z,1068.00
2023-05-09T06:12:28.188Z,1067.00
2023-05-09T06:13:28.024Z,1075.00
2023-05-09T06:14:27.969Z,1186.00
2023-05-09T06:15:28.002Z,1202.00
2023-05-09T06:16:28.058Z,1206.00
2023-05-09T06:17:28.177Z,1261.00
2023-05-09T06:18:28.094Z,1273.00
2023-05-09T06:19:28.071Z,1315.00
2023-05-09T06:20:28.146Z,1361.00
2023-05-09T06:21:28.092Z,1351.00
2023-05-09T06:22:28.096Z,1350.00
2023-05-09T06:23:28.123Z,1283.00
2023-05-09T06:24:35.620Z,1295.00
2023-05-09T06:25:29.080Z,1240.00
2023-05-09T06:26:28.095Z,1277.00
2023-05-09T06:27:28.106Z,1272.00
2023-05-09T06:28:28.085Z,1132.00
2023-05-09T06:29:28.053Z,1162.00
2023-05-09T06:30:28.098Z,1172.00
2023-05-09T06:31:28.105Z,1178.00
2023-05-09T06:32:28.062Z,1181.00
2023-05-09T06:33:28.130Z,1171.00
2023-05-09T06:34:28.049Z,1155.00
2023-05-09T06:35:28.055Z,1139.00
2023-05-09T06:36:28.003Z,1128.00
2023-05-09T06:37:28.003Z,1123.00
2023-05-09T06:38:28.511Z,1110.00
2023-05-09T06:39:27.988Z,1099.00
2023-05-09T06:40:28.047Z,1088.00
2023-05-09T06:41:28.004Z,1074.00
2023-05-09T06:42:27.989Z,1056.00
2023-05-09T06:43:28.013Z,1032.00
2023-05-09T06:44:27.984Z,1007.00
2023-05-09T06:45:28.017Z,999.00
2023-05-09T06:46:28.080Z,988.00
2023-05-09T06:47:28.124Z,989.00
2023-05-09T06:48:28.502Z,985.00
2023-05-09T06:49:28.357Z,991.00
2023-05-09T06:50:28.867Z,1006.00
2023-05-09T06:51:28.380Z,1015.00
2023-05-09T06:52:28.405Z,994.00
2023-05-09T06:53:28.452Z,997.00
2023-05-09T06:54:28.543Z,999.00
2023-05-09T06:55:28.565Z,1011.00
2023-05-09T06:56:28.652Z,1020.00
2023-05-09T06:57:28.733Z,1020.00
2023-05-09T06:58:28.741Z,1020.00
2023-05-09T06:59:28.791Z,1026.00
2023-05-09T07:00:28.862Z,1018.00
2023-05-09T07:01:28.919Z,1012.00
2023-05-09T07:02:28.975Z,1013.00
2023-05-09T07:03:28.989Z,1012.00
2023-05-09T07:04:29.076Z,1007.00
2023-05-09T07:05:29.217Z,1009.00
2023-05-09T07:06:29.105Z,1013.00
2023-05-09T07:07:29.132Z,1015.00
2023-05-09T07:08:29.223Z,1015.00
2023-05-09T07:09:29.222Z,1023.00
2023-05-09T07:10:29.266Z,1028.00
2023-05-09T07:11:29.344Z,1030.00
2023-05-09T07:12:29.349Z,1024.00
2023-05-09T07:13:29.414Z,1028.00
2023-05-09T07:14:29.430Z,1034.00
2023-05-09T07:15:40.664Z,1029.00
2023-05-09T07:16:30.565Z,989.00
2023-05-09T07:17:29.455Z,996.00
2023-05-09T07:18:29.534Z,1000.00
2023-05-09T07:19:29.396Z,1017.00
2023-05-09T07:20:29.412Z,1026.00
2023-05-09T07:21:29.504Z,1026.00
2023-05-09T07:22:31.515Z,1031.00
2023-05-09T07:23:29.435Z,1038.00
2023-05-09T07:24:29.432Z,1021.00
2023-05-09T07:25:29.373Z,1014.00
2023-05-09T07:26:29.383Z,1032.00
2023-05-09T07:27:29.396Z,1042.00
2023-05-09T07:28:29.438Z,1083.00
2023-05-09T07:29:29.331Z,1096.00
2023-05-09T07:30:29.351Z,1090.00
2023-05-09T07:31:29.391Z,1088.00
2023-05-09T07:32:29.367Z,1098.00
2023-05-09T07:33:29.532Z,1110.00
2023-05-09T07:34:29.309Z,1121.00
2023-05-09T07:35:29.317Z,1143.00
2023-05-09T07:36:29.315Z,1153.00
2023-05-09T07:37:29.396Z,1157.00
2023-05-09T07:38:29.536Z,1149.00
2023-05-09T07:39:29.268Z,1151.00
2023-05-09T07:40:29.277Z,1160.00
2023-05-09T07:41:29.269Z,1162.00
2023-05-09T07:42:29.268Z,1175.00
2023-05-09T07:43:29.258Z,1190.00
2023-05-09T07:44:29.270Z,1195.00
2023-05-09T07:45:29.315Z,1190.00
2023-05-09T07:46:29.362Z,1193.00
2023-05-09T07:47:29.255Z,1196.00
2023-05-09T07:48:29.548Z,1196.00
2023-05-09T07:49:29.254Z,1205.00
2023-05-09T07:50:29.202Z,1210.00
2023-05-09T07:51:29.210Z,1213.00
2023-05-09T07:52:29.190Z,1207.00
2023-05-09T07:53:29.606Z,1208.00
2023-05-09T07:54:29.195Z,1213.00
2023-05-09T07:55:29.203Z,1217.00
2023-05-09T07:56:29.166Z,1230.00
2023-05-09T07:57:29.197Z,1238.00
2023-05-09T07:58:29.172Z,1235.00
2023-05-09T07:59:29.169Z,1230.00
2023-05-09T08:00:29.177Z,1220.00
2023-05-09T08:01:29.156Z,1209.00
2023-05-09T08:02:29.268Z,1205.00
2023-05-09T08:03:29.165Z,1214.00
2023-05-09T08:04:29.268Z,1232.00
2023-05-09T08:05:29.163Z,1244.00
2023-05-09T08:06:29.124Z,1296.00
2023-05-09T08:07:29.120Z,1318.00
2023-05-09T08:08:29.096Z,1319.00
2023-05-09T08:09:29.175Z,1330.00
2023-05-09T08:10:29.063Z,1348.00
2023-05-09T08:11:29.080Z,1366.00
2023-05-09T08:12:29.091Z,1405.00
2023-05-09T08:13:29.143Z,1422.00
2023-05-09T08:14:29.084Z,1434.00
2023-05-09T08:15:29.059Z,1446.00
2023-05-09T08:16:29.112Z,1461.00
2023-05-09T08:17:29.138Z,1482.00
2023-05-09T08:18:29.032Z,1507.00
2023-05-09T08:19:29.057Z,1534.00
2023-05-09T08:20:29.024Z,1576.00
2023-05-09T08:21:29.065Z,1590.00
2023-05-09T08:22:29.026Z,1605.00
2023-05-09T08:23:29.008Z,1626.00
2023-05-09T08:24:29.020Z,1702.00
2023-05-09T08:25:29.103Z,1718.00
2023-05-09T08:26:29.004Z,1726.00
2023-05-09T08:27:29.032Z,1733.00
2023-05-09T08:28:29.079Z,1745.00
2023-05-09T08:29:28.982Z,1761.00
2023-05-09T08:30:28.976Z,1797.00
2023-05-09T08:31:29.077Z,1819.00
2023-05-09T08:32:29.108Z,1842.00
2023-05-09T08:33:29.110Z,1885.00
2023-05-09T08:34:29.156Z,1911.00
2023-05-09T08:35:29.177Z,1927.00
2023-05-09T08:36:29.225Z,1946.00
2023-05-09T08:37:29.272Z,1960.00
2023-05-09T08:38:29.553Z,1980.00
2023-05-09T08:39:29.364Z,1991.00
2023-05-09T08:40:29.364Z,2003.00
2023-05-09T08:41:29.554Z,2018.00
2023-05-09T08:42:29.502Z,2043.00
2023-05-09T08:43:29.524Z,2067.00
2023-05-09T08:44:29.605Z,2111.00
2023-05-09T08:45:29.586Z,2132.00
2023-05-09T08:46:29.654Z,2149.00
2023-05-09T08:47:29.721Z,2166.00
2023-05-09T08:48:29.729Z,2189.00
2023-05-09T08:49:30.070Z,2213.00
2023-05-09T08:50:29.772Z,2242.00
2023-05-09T08:51:29.825Z,2272.00
2023-05-09T08:52:29.850Z,2013.00
2023-05-09T08:53:29.872Z,1867.00
2023-05-09T08:54:30.071Z,1842.00
2023-05-09T08:55:29.973Z,1705.00
2023-05-09T08:56:30.039Z,1681.00
2023-05-09T08:57:30.173Z,1685.00
2023-05-09T08:58:30.134Z,1672.00
2023-05-09T08:59:30.571Z,1586.00
2023-05-09T09:00:30.249Z,1604.00
2023-05-09T09:01:30.318Z,1615.00
2023-05-09T09:02:30.424Z,1619.00
2023-05-09T09:03:30.375Z,1620.00
2023-05-09T09:04:30.437Z,1627.00
2023-05-09T09:06:30.460Z,1669.00
2023-05-09T09:07:31.287Z,1711.00
2023-05-09T09:08:30.473Z,1739.00
2023-05-09T09:09:30.443Z,1755.00
2023-05-09T09:10:30.420Z,1774.00
2023-05-09T09:11:30.415Z,1840.00
2023-05-09T09:12:30.410Z,1856.00
2023-05-09T09:13:30.498Z,1873.00
2023-05-09T09:14:30.388Z,1882.00
2023-05-09T09:15:30.406Z,1898.00
2023-05-09T09:16:30.473Z,1917.00
2023-05-09T09:17:30.452Z,1939.00
2023-05-09T09:18:30.367Z,1976.00
2023-05-09T09:19:30.406Z,2010.00
2023-05-09T09:20:30.351Z,2026.00
2023-05-09T09:21:30.365Z,2041.00
2023-05-09T09:22:30.341Z,2061.00
2023-05-09T09:23:30.348Z,2085.00
2023-05-09T09:24:30.392Z,2103.00
2023-05-09T09:25:30.396Z,2141.00
2023-05-09T09:26:30.365Z,2176.00
2023-05-09T09:27:30.334Z,2180.00
2023-05-09T09:28:30.321Z,2191.00
2023-05-09T09:29:30.724Z,2206.00
2023-05-09T09:30:30.304Z,2239.00
2023-05-09T09:31:30.303Z,2249.00
2023-05-09T09:32:30.332Z,2264.00
2023-05-09T09:33:30.273Z,2270.00
2023-05-09T09:34:30.569Z,2281.00
2023-05-09T09:35:30.267Z,2306.00
2023-05-09T09:36:30.263Z,2024.00
2023-05-09T09:37:30.315Z,1795.00
2023-05-09T09:38:30.255Z,1327.00
2023-05-09T09:39:30.595Z,1124.00
2023-05-09T09:40:30.273Z,1212.00
2023-05-09T09:41:30.246Z,1064.00
2023-05-09T09:42:30.258Z,1073.00
2023-05-09T09:43:30.249Z,1082.00
2023-05-09T09:44:30.581Z,1028.00
2023-05-09T09:45:30.194Z,1056.00
2023-05-09T09:46:30.356Z,1074.00
2023-05-09T09:47:30.268Z,1097.00
2023-05-09T09:48:30.200Z,1103.00
2023-05-09T09:49:30.562Z,1054.00
2023-05-09T09:50:30.323Z,1070.00
2023-05-09T09:51:30.370Z,1155.00
2023-05-09T09:52:30.427Z,1213.00
2023-05-09T09:53:30.632Z,1258.00
2023-05-09T09:54:30.567Z,1302.00
2023-05-09T09:55:30.614Z,1401.00
2023-05-09T09:56:30.679Z,1408.00
2023-05-09T09:57:30.732Z,1421.00
2023-05-09T09:58:30.729Z,1486.00
2023-05-09T09:59:30.797Z,1493.00
2023-05-09T10:00:30.828Z,1518.00
2023-05-09T10:01:30.978Z,1548.00
2023-05-09T10:02:30.920Z,1595.00
2023-05-09T10:03:30.940Z,1623.00
2023-05-09T10:04:30.938Z,1674.00
2023-05-09T10:05:30.956Z,1688.00
2023-05-09T10:06:30.961Z,1703.00
2023-05-09T10:07:31.000Z,1726.00
2023-05-09T10:08:31.015Z,1785.00
2023-05-09T10:09:31.120Z,1793.00
2023-05-09T10:10:31.030Z,1816.00
2023-05-09T10:11:31.055Z,1829.00
2023-05-09T10:12:31.045Z,1867.00
2023-05-09T10:13:31.075Z,1884.00
2023-05-09T10:14:32.469Z,1896.00
2023-05-09T10:15:41.449Z,1911.00
2023-05-09T10:16:43.067Z,1924.00
2023-05-09T10:17:32.352Z,1939.00
2023-05-09T10:18:31.545Z,1958.00
2023-05-09T10:19:31.093Z,1984.00
2023-05-09T10:20:31.044Z,2035.00
2023-05-09T10:21:30.975Z,2052.00
2023-05-09T10:22:31.010Z,2054.00
2023-05-09T10:23:30.989Z,2068.00
2023-05-09T10:24:30.983Z,2095.00
2023-05-09T10:25:30.999Z,2123.00
2023-05-09T10:26:30.954Z,2173.00
2023-05-09T10:27:30.972Z,2187.00
2023-05-09T10:28:30.945Z,2188.00
2023-05-09T10:29:30.961Z,2196.00
2023-05-09T10:30:32.960Z,2217.00
2023-05-09T10:31:30.991Z,2249.00
2023-05-09T10:32:30.949Z,2269.00
2023-05-09T10:33:31.030Z,2278.00
2023-05-09T10:34:30.919Z,2295.00
2023-05-09T10:35:30.902Z,2308.00
2023-05-09T10:36:30.897Z,2321.00
2023-05-09T10:37:31.646Z,2311.00
2023-05-09T10:38:30.888Z,2042.00
2023-05-09T10:39:30.926Z,2034.00
2023-05-09T10:40:30.976Z,2011.00
2023-05-09T10:41:31.030Z,1995.00
2023-05-09T10:42:31.059Z,1791.00
2023-05-09T10:43:32.190Z,1789.00
2023-05-09T10:44:31.117Z,1805.00
2023-05-09T10:45:31.097Z,1816.00
2023-05-09T10:46:31.214Z,1823.00
2023-05-09T10:47:31.200Z,1836.00
2023-05-09T10:48:31.216Z,1855.00
2023-05-09T10:49:31.323Z,1874.00
2023-05-09T10:50:31.310Z,1909.00
2023-05-09T10:51:31.348Z,1931.00
2023-05-09T10:52:31.387Z,1952.00
2023-05-09T10:53:31.470Z,1984.00
2023-05-09T10:54:31.535Z,2011.00
2023-05-09T10:55:31.594Z,2089.00
2023-05-09T10:56:31.654Z,2092.00
2023-05-09T10:57:31.730Z,2094.00
2023-05-09T10:58:31.780Z,2115.00
2023-05-09T10:59:32.118Z,2134.00
2023-05-09T11:00:31.884Z,2150.00
2023-05-09T11:01:32.006Z,2173.00
2023-05-09T11:02:32.024Z,2194.00
2023-05-09T11:03:32.139Z,2216.00
2023-05-09T11:04:32.117Z,2232.00
2023-05-09T11:05:32.230Z,2250.00
2023-05-09T11:06:32.175Z,2275.00
2023-05-09T11:07:32.214Z,2284.00
2023-05-09T11:08:32.300Z,2329.00
2023-05-09T11:09:32.332Z,2344.00
2023-05-09T11:10:32.361Z,2323.00
2023-05-09T11:11:32.425Z,2141.00
2023-05-09T11:12:32.457Z,2170.00
2023-05-09T11:13:32.579Z,1873.00
2023-05-09T11:14:32.597Z,1759.00
2023-05-09T11:15:32.655Z,1805.00
2023-05-09T11:16:32.724Z,1757.00
2023-05-09T11:17:32.780Z,1701.00
2023-05-09T11:18:32.806Z,1694.00
2023-05-09T11:19:32.889Z,1610.00
2023-05-09T11:20:32.930Z,1641.00
2023-05-09T11:21:33.088Z,1664.00
2023-05-09T11:22:33.177Z,1681.00
2023-05-09T11:23:33.104Z,1700.00
2023-05-09T11:24:33.170Z,1733.00
2023-05-09T11:25:33.224Z,1762.00
2023-05-09T11:26:33.283Z,1766.00
2023-05-09T11:27:33.369Z,1769.00
2023-05-09T11:28:33.408Z,1768.00
2023-05-09T11:29:33.624Z,1765.00
2023-05-09T11:30:33.478Z,1761.00
2023-05-09T11:31:33.561Z,1755.00
2023-05-09T11:32:33.618Z,1762.00
2023-05-09T11:33:33.594Z,1757.00
2023-05-09T11:34:33.641Z,1752.00
2023-05-09T11:35:33.699Z,1747.00
2023-05-09T11:36:34.058Z,1741.00
2023-05-09T11:37:33.926Z,1621.00
2023-05-09T11:38:33.901Z,1608.00
2023-05-09T11:39:33.932Z,1598.00
2023-05-09T11:40:33.997Z,1579.00
2023-05-09T11:41:34.028Z,1501.00
2023-05-09T11:42:34.082Z,1429.00
2023-05-09T11:43:34.163Z,1436.00
2023-05-09T11:44:34.202Z,1432.00
2023-05-09T11:45:34.317Z,1427.00
2023-05-09T11:46:34.380Z,1445.00
2023-05-09T11:47:34.443Z,1464.00
2023-05-09T11:48:34.456Z,1461.00
2023-05-09T11:49:34.624Z,1381.00
2023-05-09T11:50:34.607Z,1383.00
2023-05-09T11:51:34.652Z,1378.00
2023-05-09T11:52:34.729Z,1387.00
2023-05-09T11:53:34.858Z,1386.00
2023-05-09T11:54:34.837Z,1358.00
2023-05-09T11:55:34.898Z,1355.00
2023-05-09T11:56:34.955Z,1356.00
2023-05-09T11:57:34.981Z,1227.00
2023-05-09T11:58:34.989Z,1233.00
2023-05-09T11:59:35.077Z,1253.00
2023-05-09T12:00:35.138Z,1243.00
2023-05-09T12:01:35.113Z,1212.00
2023-05-09T12:02:35.480Z,1217.00
2023-05-09T12:03:35.232Z,1213.00
2023-05-09T12:04:35.236Z,1051.00
2023-05-09T12:05:35.155Z,1038.00
2023-05-09T12:06:35.168Z,1060.00
2023-05-09T12:07:35.157Z,1087.00
2023-05-09T12:08:35.183Z,1080.00
2023-05-09T12:09:35.752Z,873.00
2023-05-09T12:10:35.199Z,847.00
2023-05-09T12:11:35.223Z,890.00
2023-05-09T12:12:35.210Z,875.00
2023-05-09T12:13:35.226Z,874.00
2023-05-09T12:14:35.240Z,874.00
2023-05-09T12:15:35.212Z,874.00
2023-05-09T12:16:35.373Z,877.00
2023-05-09T12:17:35.336Z,881.00
2023-05-09T12:18:35.281Z,886.00